Weather at Sussex County Airport

Public forecast

Using degrees Fahrenheit for public forecast. Weather courtesy of forecast.io.

Current aviation weather report (METAR) for Sussex County Airport

Report is more than 2 hours old.

Retrieved 2020/10/29 06:54 UTC (4 hours ago):

KGED 290654Z AUTO 06005KT 6SM BR OVC004 18/18 A2991 RMK AO2 RAE38 SLP126 P0001 T01780178

Closest aviation forecast (TAF) to Sussex County Airport

Closest forecast is Salisbury Ocean City Wicomico Regional Airport, 22.1 nm (41.0 km) SSW. Retrieved 2020/10/29 06:45 UTC (4 hours ago):

TAF COR KSBY 290542Z 2906/3006 21007KT P6SM VCSH SCT015 OVC025 FM290800 19005KT P6SM -RA SCT008 OVC015 TEMPO 2908/2912 BKN008 FM291200 19008KT 5SM -RA BR OVC070 FM291700 16010KT 4SM RA OVC020 FM292200 24014G24KT P6SM -RA OVC020 FM300200 35010KT P6SM -RA OVC005